Time;durP1;ratioP1;P1;durP2;ratioP2;P2;SDS_P1;SDS_P2;PMS_P1;PMS_P2;Temp;Humidity;BMP_temperature;BMP_pressure;BME280_temperature;BME280_humidity;BME280_pressure;Samples;Min_cycle;Max_cycle;Signal;HPM_P1;HPM_P2
2022/09/20 00:00:51;;;;;;;;;;;;;;;-144.99;100.00;52431.78;5053842;28;19925;-79
2022/09/20 00:03:17;;;;;;;;;;;;;;;-144.99;100.00;52354.34;5056508;28;19972;-79
2022/09/20 00:05:45;;;;;;;;;;;;;;;-144.99;100.00;52391.03;5055055;28;19970;-77
2022/09/20 00:08:14;;;;;;;;;;;;;;;-144.99;100.00;52354.34;5038944;28;19933;-75
2022/09/20 00:10:41;;;;;;;;;;;;;;;-144.99;100.00;52362.50;5046630;28;20020;-77
2022/09/20 00:13:08;;;;;;;;;;;;;;;-144.99;100.00;52350.25;5058741;28;19995;-78
2022/09/20 00:15:39;;;;;;;;;;;;;;;-144.99;100.00;52399.19;5052145;28;19971;-76
2022/09/20 00:18:06;;;;;;;;;;;;;;;-144.99;100.00;52401.22;5050171;28;20023;-78
2022/09/20 00:20:32;;;;;;;;;;;;;;;-144.99;100.00;52407.31;5052989;28;19979;-78
2022/09/20 00:22:59;;;;;;;;;;;;;;;-144.99;100.00;52364.53;5058299;28;19968;-78
2022/09/20 00:25:27;;;;;;;;;;;;;;;-144.99;100.00;52391.03;5055856;28;19964;-77
2022/09/20 00:27:53;;;;;;;;;;;;;;;-144.99;100.00;52362.50;5048803;28;19967;-74
2022/09/20 00:30:20;;;;;;;;;;;;;;;-144.99;100.00;52399.19;5053916;28;20280;-77
2022/09/20 00:32:46;;;;;;;;;;;;;;;-144.99;100.00;52403.25;5048201;28;20313;-77
2022/09/20 00:35:12;;;;;;;;;;;;;;;-144.99;100.00;52397.13;5057811;28;19980;-77
2022/09/20 00:37:39;;;;;;;;;;;;;;;-144.99;100.00;52380.84;5047902;28;20020;-77
2022/09/20 00:40:07;;;;;;;;;;;;;;;-144.99;100.00;52397.13;5049926;28;19952;-77
2022/09/20 00:42:35;;;;;;;;;;;;;;;-144.99;100.00;52358.41;5054795;28;20444;-77
2022/09/20 00:45:02;;;;;;;;;;;;;;;-144.99;100.00;52413.44;5061291;28;20012;-77
2022/09/20 00:47:34;;;;;;;;;;;;;;;-144.99;100.00;52407.31;5056540;28;20418;-77
2022/09/20 00:50:04;;;;;;;;;;;;;;;-144.99;100.00;52415.47;5051701;28;19925;-77
2022/09/20 00:52:31;;;;;;;;;;;;;;;-144.99;100.00;52415.47;5053083;28;19943;-76
2022/09/20 00:54:58;;;;;;;;;;;;;;;-144.99;100.00;52342.09;5049517;28;19931;-75
2022/09/20 00:57:25;;;;;;;;;;;;;;;-144.99;100.00;52399.19;5040203;28;20019;-74
2022/09/20 00:59:53;;;;;;;;;;;;;;;-144.99;100.00;52366.56;5047048;28;20023;-76
2022/09/20 01:02:22;;;;;;;;;;;;;;;-144.99;100.00;52378.78;5054608;28;20013;-77
2022/09/20 01:04:49;;;;;;;;;;;;;;;-144.99;100.00;52399.19;5062430;28;20034;-75
2022/09/20 01:07:18;;;;;;;;;;;;;;;-144.99;100.00;52407.31;5053780;28;20032;-76
2022/09/20 01:09:44;;;;;;;;;;;;;;;-144.99;100.00;52382.88;5052194;28;20015;-80
2022/09/20 01:12:13;;;;;;;;;;;;;;;-144.99;100.00;52372.69;5046534;28;20286;-79
2022/09/20 01:14:41;;;;;;;;;;;;;;;-144.99;100.00;52358.41;5048969;28;20356;-77
2022/09/20 01:17:10;;;;;;;;;;;;;;;-144.99;100.00;52407.31;5065725;28;19925;-77
2022/09/20 01:19:40;;;;;;;;;;;;;;;-144.99;100.00;52411.41;5051792;28;19929;-77
2022/09/20 01:22:11;;;;;;;;;;;;;;;-144.99;100.00;52419.56;5057059;28;20074;-77
2022/09/20 01:24:41;;;;;;;;;;;;;;;-144.99;100.00;52391.03;5058078;28;19925;-78
2022/09/20 01:27:14;;;;;;;;;;;;;;;-144.99;100.00;52350.25;5059729;28;19932;-77
2022/09/20 01:29:50;;;;;;;;;;;;;;;-144.99;100.00;52356.38;5054749;28;19929;-77
2022/09/20 01:32:20;;;;;;;;;;;;;;;-144.99;100.00;52399.19;5052206;28;20368;-76
2022/09/20 01:34:48;;;;;;;;;;;;;;;-144.99;100.00;52393.06;5057505;28;19935;-77
2022/09/20 01:37:19;;;;;;;;;;;;;;;-144.99;100.00;52386.94;5067105;28;19935;-77
2022/09/20 01:39:51;;;;;;;;;;;;;;;-144.99;100.00;52397.13;5051534;28;20252;-77
2022/09/20 01:42:18;;;;;;;;;;;;;;;-144.99;100.00;52407.31;5053945;28;19925;-77
2022/09/20 01:44:52;;;;;;;;;;;;;;;-144.99;100.00;52403.25;5062187;28;20152;-75
2022/09/20 01:47:26;;;;;;;;;;;;;;;-144.99;100.00;52386.94;5081324;28;20055;-78
2022/09/20 01:49:56;;;;;;;;;;;;;;;-144.99;100.00;52366.56;5065234;28;20037;-77
2022/09/20 01:52:38;;;;;;;;;;;;;;;-144.99;100.00;52378.78;5069328;28;19924;-78
2022/09/20 01:55:14;;;;;;;;;;;;;;;-144.99;100.00;52362.50;5056301;28;19924;-79
2022/09/20 01:58:07;;;;;;;;;;;;;;;-144.99;100.00;52358.41;5056253;28;20400;-79
2022/09/20 02:00:38;;;;;;;;;;;;;;;-144.99;100.00;52415.47;5058783;28;19924;-79
2022/09/20 02:03:35;;;;;;;;;;;;;;;-144.99;100.00;52393.06;5050791;28;19935;-78
2022/09/20 02:06:27;;;;;;;;;;;;;;;-144.99;100.00;52382.88;5054503;28;20024;-78
2022/09/20 02:09:08;;;;;;;;;;;;;;;-144.99;100.00;52391.03;5037675;28;19955;-78
2022/09/20 02:11:42;;;;;;;;;;;;;;;-144.99;100.00;52391.03;5042464;28;19947;-76
2022/09/20 02:14:24;;;;;;;;;;;;;;;-144.99;100.00;52384.91;5068880;28;19938;-76
2022/09/20 02:16:55;;;;;;;;;;;;;;;-144.99;100.00;52382.88;5072581;28;20395;-79
2022/09/20 02:19:33;;;;;;;;;;;;;;;-144.99;100.00;52399.19;5073215;28;20015;-79
2022/09/20 02:22:11;;;;;;;;;;;;;;;-144.99;100.00;52407.31;5060452;28;19912;-78
2022/09/20 02:24:40;;;;;;;;;;;;;;;-144.99;100.00;52354.34;5071933;28;19986;-78
2022/09/20 02:27:13;;;;;;;;;;;;;;;-144.99;100.00;52391.03;5065967;28;19936;-78
2022/09/20 02:29:45;;;;;;;;;;;;;;;-144.99;100.00;52421.59;5057214;28;19925;-78
2022/09/20 02:32:26;;;;;;;;;;;;;;;-144.99;100.00;52395.09;5052066;28;20383;-79
2022/09/20 02:35:04;;;;;;;;;;;;;;;-144.99;100.00;52411.41;5051080;28;19925;-78
2022/09/20 02:37:48;;;;;;;;;;;;;;;-144.99;100.00;52374.72;5062216;28;20091;-75
2022/09/20 02:40:22;;;;;;;;;;;;;;;-144.99;100.00;52403.25;5040771;28;19940;-77
2022/09/20 02:42:52;;;;;;;;;;;;;;;-144.99;100.00;52431.78;5051930;28;20215;-77
2022/09/20 02:45:24;;;;;;;;;;;;;;;-144.99;100.00;52358.41;5053003;28;19924;-77
2022/09/20 02:47:51;;;;;;;;;;;;;;;-144.99;100.00;52395.09;5051676;28;19928;-77
2022/09/20 02:50:23;;;;;;;;;;;;;;;-144.99;100.00;52374.72;5053066;28;19931;-77
2022/09/20 02:52:54;;;;;;;;;;;;;;;-144.99;100.00;52382.88;5048579;28;20372;-78
2022/09/20 02:55:25;;;;;;;;;;;;;;;-144.99;100.00;52378.78;5048314;28;20033;-77
2022/09/20 02:57:58;;;;;;;;;;;;;;;-144.99;100.00;52391.03;5049840;28;20309;-77
2022/09/20 03:00:27;;;;;;;;;;;;;;;-144.99;100.00;52384.91;5066506;28;19963;-79
2022/09/20 03:03:01;;;;;;;;;;;;;;;-144.99;100.00;52354.34;5050759;28;19925;-78
2022/09/20 03:05:34;;;;;;;;;;;;;;;-144.99;100.00;52356.38;5055264;28;19924;-78
2022/09/20 03:08:11;;;;;;;;;;;;;;;-144.99;100.00;52366.56;5066193;28;19943;-79
2022/09/20 03:10:42;;;;;;;;;;;;;;;-144.99;100.00;52362.50;5068708;28;19951;-80
2022/09/20 03:13:16;;;;;;;;;;;;;;;-144.99;100.00;52374.72;5043841;28;19928;-79
2022/09/20 03:15:52;;;;;;;;;;;;;;;-144.99;100.00;52409.38;5052950;28;20374;-79
2022/09/20 03:18:26;;;;;;;;;;;;;;;-144.99;100.00;52407.31;5066360;28;19924;-76
2022/09/20 03:20:57;;;;;;;;;;;;;;;-144.99;100.00;52397.13;5055778;28;19929;-76
2022/09/20 03:23:42;;;;;;;;;;;;;;;-144.99;100.00;52448.09;5047545;28;19940;-75
2022/09/20 03:26:16;;;;;;;;;;;;;;;-144.99;100.00;52378.78;5047992;28;19929;-78
2022/09/20 03:28:51;;;;;;;;;;;;;;;-144.99;100.00;52411.41;5056857;28;19941;-76
2022/09/20 03:31:24;;;;;;;;;;;;;;;-144.99;100.00;52399.19;5053975;28;20034;-75
2022/09/20 03:33:57;;;;;;;;;;;;;;;-144.99;100.00;52407.31;5046275;28;19932;-77
2022/09/20 03:36:34;;;;;;;;;;;;;;;-144.99;100.00;52378.78;5056441;28;19931;-78
2022/09/20 03:39:11;;;;;;;;;;;;;;;-144.99;100.00;52397.13;5056680;28;19924;-77
2022/09/20 03:41:50;;;;;;;;;;;;;;;-144.99;100.00;52374.72;5047707;28;19982;-78
2022/09/20 03:44:27;;;;;;;;;;;;;;;-144.99;100.00;52395.09;5046372;28;19929;-79
2022/09/20 03:47:03;;;;;;;;;;;;;;;-144.99;100.00;52417.53;5076596;22;19925;-72
2022/09/20 03:49:51;;;;;;;;;;;;;;;-144.99;100.00;52431.78;5051939;28;19987;-73
2022/09/20 03:52:25;;;;;;;;;;;;;;;-144.99;100.00;52456.25;5062864;28;20399;-73
2022/09/20 03:55:04;;;;;;;;;;;;;;;-144.99;100.00;52425.66;5057686;28;19924;-71
2022/09/20 03:57:49;;;;;;;;;;;;;;;-144.99;100.00;52378.78;5062002;28;19951;-69
2022/09/20 04:00:30;;;;;;;;;;;;;;;-144.99;100.00;52419.56;5067491;28;19970;-70
2022/09/20 04:03:03;;;;;;;;;;;;;;;-144.99;100.00;52376.75;5062345;28;20037;-69
2022/09/20 04:05:33;;;;;;;;;;;;;;;-144.99;100.00;52391.03;5057298;28;19974;-68
2022/09/20 04:08:10;;;;;;;;;;;;;;;-144.99;100.00;52407.31;5067046;28;20273;-71
2022/09/20 04:10:43;;;;;;;;;;;;;;;-144.99;100.00;52427.72;5068359;28;19955;-71
2022/09/20 04:13:15;;;;;;;;;;;;;;;-144.99;100.00;52407.31;5057226;28;19928;-70
2022/09/20 04:15:45;;;;;;;;;;;;;;;-144.99;100.00;52427.72;5067007;28;20070;-74
2022/09/20 04:18:18;;;;;;;;;;;;;;;-144.99;100.00;52425.66;5060120;28;19977;-74
2022/09/20 04:20:46;;;;;;;;;;;;;;;-144.99;100.00;52384.91;5061987;28;19928;-73
2022/09/20 04:23:28;;;;;;;;;;;;;;;-144.99;100.00;52415.47;5055744;28;20023;-74
2022/09/20 04:25:54;;;;;;;;;;;;;;;-144.99;100.00;52407.31;5062357;28;19974;-73
2022/09/20 04:28:25;;;;;;;;;;;;;;;-144.99;100.00;52376.75;5057129;28;19933;-73
2022/09/20 04:30:55;;;;;;;;;;;;;;;-144.99;100.00;52409.38;5061736;28;19981;-74
2022/09/20 04:33:25;;;;;;;;;;;;;;;-144.99;100.00;52372.69;5065152;28;20502;-74
2022/09/20 04:38:40;;;;;;;;;;;;;;;-144.99;100.00;52415.47;5060618;28;19931;-73
2022/09/20 04:41:22;;;;;;;;;;;;;;;-144.99;100.00;52391.03;5056121;28;20015;-73
2022/09/20 04:44:10;;;;;;;;;;;;;;;-144.99;100.00;52399.19;5009464;28;19979;-73
2022/09/20 04:46:58;;;;;;;;;;;;;;;-144.99;100.00;52403.25;5032727;28;20349;-73
2022/09/20 04:49:45;;;;;;;;;;;;;;;-144.99;100.00;52399.19;5071091;28;20350;-73
2022/09/20 04:52:39;;;;;;;;;;;;;;;-144.99;100.00;52415.47;5059241;28;19928;-74
2022/09/20 04:55:34;;;;;;;;;;;;;;;-144.99;100.00;52409.38;5069729;28;20011;-72
2022/09/20 04:58:28;;;;;;;;;;;;;;;-144.99;100.00;52435.88;5055796;28;19950;-74
2022/09/20 05:01:10;;;;;;;;;;;;;;;-144.99;100.00;52399.19;5034529;28;20024;-73
2022/09/20 05:04:02;;;;;;;;;;;;;;;-144.99;100.00;52397.13;5072130;28;19924;-75
2022/09/20 05:06:37;;;;;;;;;;;;;;;-144.99;100.00;52431.78;5073290;28;19974;-75
2022/09/20 05:09:19;;;;;;;;;;;;;;;-144.99;100.00;52411.41;5080429;28;19989;-75
2022/09/20 05:11:55;;;;;;;;;;;;;;;-144.99;100.00;52364.53;5073145;28;19944;-76
2022/09/20 05:14:36;;;;;;;;;;;;;;;-144.99;100.00;52403.25;5078985;28;19928;-76
2022/09/20 05:17:13;;;;;;;;;;;;;;;-144.99;100.00;52395.09;4839234;28;10000222;-76
2022/09/20 05:19:48;;;;;;;;;;;;;;;-144.99;100.00;52395.09;5072238;28;19924;-74
2022/09/20 05:22:32;;;;;;;;;;;;;;;-144.99;100.00;52403.25;5073815;28;20235;-76
2022/09/20 05:25:06;;;;;;;;;;;;;;;-144.99;100.00;52366.56;5067010;28;20443;-75
2022/09/20 05:27:41;;;;;;;;;;;;;;;-144.99;100.00;52415.47;5071063;28;19925;-75
2022/09/20 05:30:25;;;;;;;;;;;;;;;-144.99;100.00;52372.69;5059791;28;19933;-76
2022/09/20 05:33:06;;;;;;;;;;;;;;;-144.99;100.00;52386.94;5067566;28;19935;-75
2022/09/20 05:35:37;;;;;;;;;;;;;;;-144.99;100.00;52374.72;5071490;28;19925;-77
2022/09/20 05:38:07;;;;;;;;;;;;;;;-144.99;100.00;52382.88;5067832;28;20023;-76
2022/09/20 05:40:44;;;;;;;;;;;;;;;-144.99;100.00;52403.25;5059678;28;20148;-77
2022/09/20 05:43:13;;;;;;;;;;;;;;;-144.99;100.00;52356.38;5067830;28;20009;-77
2022/09/20 05:45:59;;;;;;;;;;;;;;;-144.99;100.00;52354.34;5062337;28;19928;-76
2022/09/20 05:48:32;;;;;;;;;;;;;;;-144.99;100.00;52382.88;5055924;28;20569;-78
2022/09/20 05:51:00;;;;;;;;;;;;;;;-144.99;100.00;52366.56;5070229;28;19924;-75
2022/09/20 05:53:41;;;;;;;;;;;;;;;-144.99;100.00;52391.03;5070429;28;20379;-77
2022/09/20 05:56:13;;;;;;;;;;;;;;;-144.99;98.86;52350.25;5073096;28;19967;-77
2022/09/20 05:59:00;;;;;;;;;;;;;;;-144.99;99.07;52378.78;5086588;28;19976;-77
2022/09/20 06:01:32;;;;;;;;;;;;;;;-144.99;99.34;52358.41;5074431;28;19928;-78
2022/09/20 06:04:07;;;;;;;;;;;;;;;-144.99;99.34;52374.72;5080646;28;20454;-77
2022/09/20 06:06:39;;;;;;;;;;;;;;;-144.99;99.20;52370.63;5085576;28;20105;-77
2022/09/20 06:09:14;;;;;;;;;;;;;;;-144.99;98.51;52384.91;5071149;28;20422;-77
2022/09/20 06:11:47;;;;;;;;;;;;;;;-144.99;97.79;52376.75;5055670;28;19983;-77
2022/09/20 06:14:21;;;;;;;;;;;;;;;-144.99;97.41;52368.59;5072527;28;19983;-79
2022/09/20 06:16:53;;;;;;;;;;;;;;;-144.99;96.57;52360.44;5068891;28;19928;-76
2022/09/20 06:19:27;;;;;;;;;;;;;;;-144.99;96.03;52354.34;5068453;28;19979;-77
2022/09/20 06:21:54;;;;;;;;;;;;;;;-144.99;96.08;52303.38;5062205;28;20077;-76
2022/09/20 06:24:26;;;;;;;;;;;;;;;-144.99;95.88;52399.19;5072632;28;19960;-77
2022/09/20 06:26:55;;;;;;;;;;;;;;;-144.99;95.67;52336.00;5076851;28;19971;-78
2022/09/20 06:29:24;;;;;;;;;;;;;;;-144.99;95.13;52338.03;5085008;28;19924;-77
2022/09/20 06:31:53;;;;;;;;;;;;;;;-144.99;94.67;52354.34;5072250;28;19928;-76
2022/09/20 06:34:19;;;;;;;;;;;;;;;-144.99;94.04;52321.72;5076973;28;19928;-77
2022/09/20 06:42:20;;;;;;;;;;;;;;;-144.99;94.52;52362.50;5070502;28;19963;-76
2022/09/20 06:44:46;;;;;;;;;;;;;;;-144.99;94.24;52338.03;4718998;28;9999913;-74
2022/09/20 06:47:15;;;;;;;;;;;;;;;-144.99;93.58;52350.25;5067323;28;19935;-77
2022/09/20 06:49:43;;;;;;;;;;;;;;;-144.99;92.69;52321.72;4711159;28;10000623;-75
2022/09/20 06:52:12;;;;;;;;;;;;;;;-144.99;92.34;52338.03;5063632;28;20484;-76
2022/09/20 06:54:44;;;;;;;;;;;;;;;-144.99;91.95;52299.31;5059910;28;20004;-76
2022/09/20 06:57:12;;;;;;;;;;;;;;;-144.99;91.76;52321.72;5063842;28;20608;-77
2022/09/20 06:59:38;;;;;;;;;;;;;;;-144.99;90.88;52319.69;5067392;28;19921;-75
2022/09/20 07:02:05;;;;;;;;;;;;;;;-144.99;89.67;52305.41;5057429;28;20530;-77
2022/09/20 07:04:33;;;;;;;;;;;;;;;-144.99;87.95;52317.66;5060868;28;20011;-77
2022/09/20 07:07:00;;;;;;;;;;;;;;;-144.99;86.28;52309.50;5062829;28;19925;-76
2022/09/20 07:09:26;;;;;;;;;;;;;;;-144.99;86.35;52333.94;5068406;28;19925;-76
2022/09/20 07:11:54;;;;;;;;;;;;;;;-144.99;85.52;52280.97;5062155;28;19996;-77
2022/09/20 07:14:20;;;;;;;;;;;;;;;-144.99;84.72;52285.03;5059756;28;19925;-77
2022/09/20 07:16:47;;;;;;;;;;;;;;;-144.99;82.90;52256.50;5062910;28;20015;-77
2022/09/20 07:19:13;;;;;;;;;;;;;;;-144.99;81.88;52325.81;5065605;28;20360;-75
2022/09/20 07:21:41;;;;;;;;;;;;;;;-144.99;80.22;52285.03;5063375;28;20015;-76
2022/09/20 07:24:08;;;;;;;;;;;;;;;-144.99;79.28;52305.41;5063080;28;19931;-78
2022/09/20 07:26:34;;;;;;;;;;;;;;;-144.99;78.84;52297.25;5055210;28;19980;-75
2022/09/20 07:29:01;;;;;;;;;;;;;;;-144.99;78.29;52307.47;5064055;28;20372;-75
2022/09/20 07:31:28;;;;;;;;;;;;;;;-144.99;78.60;52283.00;5064022;28;19924;-77
2022/09/20 07:33:55;;;;;;;;;;;;;;;-144.99;78.52;52299.31;5063384;28;20556;-76
2022/09/20 07:36:22;;;;;;;;;;;;;;;-144.99;78.28;52313.56;5061719;28;19928;-77
2022/09/20 07:38:51;;;;;;;;;;;;;;;-144.99;77.07;52301.34;5066830;28;19935;-78
2022/09/20 07:41:18;;;;;;;;;;;;;;;-144.99;77.27;52329.88;5056519;28;19921;-76
2022/09/20 07:43:45;;;;;;;;;;;;;;;-144.99;76.80;52299.31;5065544;28;19928;-77
2022/09/20 07:46:12;;;;;;;;;;;;;;;-144.99;76.48;52305.41;5055903;28;19952;-77
2022/09/20 07:48:39;;;;;;;;;;;;;;;-144.99;76.87;52317.66;5064501;28;19931;-76
2022/09/20 07:51:07;;;;;;;;;;;;;;;-144.99;76.15;52280.97;5064766;28;19947;-75
2022/09/20 07:53:33;;;;;;;;;;;;;;;-144.99;75.46;52276.88;5067247;28;20012;-77
2022/09/20 07:56:02;;;;;;;;;;;;;;;-144.99;72.83;52313.56;5064513;28;19924;-78
2022/09/20 07:58:29;;;;;;;;;;;;;;;-144.99;72.72;52256.50;5067869;28;19982;-77
2022/09/20 08:00:56;;;;;;;;;;;;;;;-144.99;71.99;52256.50;5069131;28;19939;-76
2022/09/20 08:03:23;;;;;;;;;;;;;;;-144.99;70.23;52248.34;5061854;28;19924;-77
2022/09/20 08:05:50;;;;;;;;;;;;;;;-144.99;69.43;52276.88;5069679;28;20023;-77
2022/09/20 08:08:16;;;;;;;;;;;;;;;-144.99;67.78;52264.66;5066914;28;20407;-77
2022/09/20 08:10:43;;;;;;;;;;;;;;;-144.99;64.49;52227.97;5069378;28;20025;-76
2022/09/20 08:13:11;;;;;;;;;;;;;;;-144.99;62.74;52246.31;5059910;28;19982;-75
2022/09/20 08:15:38;;;;;;;;;;;;;;;-144.99;61.36;52246.31;5059954;28;19924;-77
2022/09/20 08:18:06;;;;;;;;;;;;;;;-144.99;61.45;52280.97;5056620;28;19980;-76
2022/09/20 08:20:35;;;;;;;;;;;;;;;-144.99;61.46;52272.81;5065104;28;19920;-76
2022/09/20 08:23:02;;;;;;;;;;;;;;;-144.99;60.13;52232.03;5065922;28;19927;-77
2022/09/20 08:25:28;;;;;;;;;;;;;;;-144.99;58.44;52248.34;5064174;28;19927;-78
2022/09/20 08:27:54;;;;;;;;;;;;;;;-144.99;58.79;52219.81;5072047;28;19927;-78
2022/09/20 08:30:23;;;;;;;;;;;;;;;-144.99;58.48;52240.19;5071687;28;19928;-76
2022/09/20 08:32:49;;;;;;;;;;;;;;;-144.99;57.76;52256.50;5063318;28;19974;-77
2022/09/20 08:35:16;;;;;;;;;;;;;;;-144.99;56.45;52262.63;5066594;28;19932;-77
2022/09/20 08:37:44;;;;;;;;;;;;;;;-144.99;54.47;52209.63;5061839;28;19924;-76
2022/09/20 08:40:14;;;;;;;;;;;;;;;-144.99;53.92;52211.66;5060089;28;19924;-76
2022/09/20 08:42:43;;;;;;;;;;;;;;;-144.99;52.74;52158.66;5059465;28;20373;-76
2022/09/20 08:45:12;;;;;;;;;;;;;;;-144.99;52.02;52211.66;5066330;28;19925;-77
2022/09/20 08:47:45;;;;;;;;;;;;;;;-144.99;50.92;52160.72;5057956;28;19935;-76
2022/09/20 08:50:13;;;;;;;;;;;;;;;-144.99;49.96;52187.19;5060917;28;19925;-77
2022/09/20 08:52:41;;;;;;;;;;;;;;;-144.99;48.26;52203.50;5061327;28;19924;-77
2022/09/20 08:55:15;;;;;;;;;;;;;;;-144.99;47.46;52203.50;5060542;28;19931;-77
2022/09/20 08:57:42;;;;;;;;;;;;;;;-144.99;47.74;52187.19;5063138;28;19971;-76
2022/09/20 09:00:16;;;;;;;;;;;;;;;-144.99;47.29;52191.28;5059469;28;19924;-77
2022/09/20 09:02:44;;;;;;;;;;;;;;;-144.99;47.16;52146.44;5052393;28;20002;-76
2022/09/20 09:05:22;;;;;;;;;;;;;;;-144.99;46.36;52183.13;5057799;28;19956;-76
2022/09/20 09:07:49;;;;;;;;;;;;;;;-144.99;45.97;52203.50;5058882;28;19994;-76
2022/09/20 09:10:15;;;;;;;;;;;;;;;-144.99;45.95;52207.59;5053766;28;20023;-76
2022/09/20 09:12:45;;;;;;;;;;;;;;;-144.99;45.12;52187.19;5065210;28;19926;-76
2022/09/20 09:15:21;;;;;;;;;;;;;;;-144.99;44.61;52199.44;5065868;28;19924;-77
2022/09/20 09:17:50;;;;;;;;;;;;;;;-144.99;45.27;52179.06;5064656;28;20395;-78
2022/09/20 09:20:20;;;;;;;;;;;;;;;-144.99;44.62;52211.66;5062691;28;19924;-78
2022/09/20 09:22:47;;;;;;;;;;;;;;;-144.99;43.07;52174.97;5065978;28;19920;-77
2022/09/20 09:25:24;;;;;;;;;;;;;;;-144.99;43.23;52158.66;5066630;28;19925;-75
2022/09/20 09:27:54;;;;;;;;;;;;;;;-144.99;42.67;52191.28;5062322;28;19924;-76
2022/09/20 09:30:22;;;;;;;;;;;;;;;-144.99;42.41;52174.97;5060837;28;19933;-77
2022/09/20 09:32:50;;;;;;;;;;;;;;;-144.99;41.04;52158.66;5065206;28;20375;-77
2022/09/20 09:35:23;;;;;;;;;;;;;;;-144.99;40.50;52166.81;5072265;28;19920;-76
2022/09/20 09:37:53;;;;;;;;;;;;;;;-144.99;39.50;52138.28;5061706;28;20479;-75
2022/09/20 09:40:19;;;;;;;;;;;;;;;-144.99;38.85;52146.44;5064948;28;20160;-76
2022/09/20 09:42:50;;;;;;;;;;;;;;;-144.99;38.17;52183.13;5069085;28;19929;-76
2022/09/20 09:45:38;;;;;;;;;;;;;;;-144.99;39.07;52164.78;5069303;28;20414;-77
2022/09/20 09:48:17;;;;;;;;;;;;;;;-144.99;38.73;52121.97;5078511;22;19990;-77
2022/09/20 09:50:43;;;;;;;;;;;;;;;-144.99;37.96;52134.22;5034430;28;19920;-77
2022/09/20 09:53:11;;;;;;;;;;;;;;;-144.99;36.99;52109.75;5045689;28;20023;-79
2022/09/20 09:55:51;;;;;;;;;;;;;;;-144.99;35.84;52093.44;5041808;28;20303;-74
2022/09/20 09:58:26;;;;;;;;;;;;;;;-144.99;35.12;52097.53;5040247;28;20384;-78
2022/09/20 10:00:54;;;;;;;;;;;;;;;-144.99;34.36;52064.91;5042888;28;20009;-79
2022/09/20 10:03:38;;;;;;;;;;;;;;;-144.99;33.49;52069.00;5034619;28;19921;-78
2022/09/20 10:06:15;;;;;;;;;;;;;;;-144.99;32.79;52032.31;5041062;28;20011;-78
2022/09/20 10:08:48;;;;;;;;;;;;;;;-144.99;32.18;52064.91;5042172;28;19925;-78
2022/09/20 10:11:20;;;;;;;;;;;;;;;-144.99;31.67;52020.09;5041206;28;19947;-78
2022/09/20 10:13:51;;;;;;;;;;;;;;;-144.99;30.78;52040.47;5044286;28;20272;-76
2022/09/20 10:16:27;;;;;;;;;;;;;;;-144.99;31.33;52097.53;5038019;28;20308;-78
2022/09/20 10:18:59;;;;;;;;;;;;;;;-144.99;31.94;52126.06;5038540;28;19925;-75
2022/09/20 10:21:37;;;;;;;;;;;;;;;-144.99;33.03;52191.28;5046901;28;20335;-75
2022/09/20 10:24:15;;;;;;;;;;;;;;;-144.99;33.69;52221.84;5044644;28;20237;-77
2022/09/20 10:26:48;;;;;;;;;;;;;;;-144.99;35.20;52252.44;5038142;28;19932;-76
2022/09/20 10:29:21;;;;;;;;;;;;;;;-144.99;35.86;52244.28;5037801;28;20103;-75
2022/09/20 10:31:56;;;;;;;;;;;;;;;-144.99;36.28;52223.88;5036646;28;20120;-78
2022/09/20 10:34:38;;;;;;;;;;;;;;;-144.99;36.89;52170.91;5043866;28;20542;-78
2022/09/20 10:37:11;;;;;;;;;;;;;;;-144.99;36.00;52121.97;5039570;28;19921;-78
2022/09/20 10:39:39;;;;;;;;;;;;;;;-144.99;34.34;52060.84;5035441;28;19928;-77
2022/09/20 10:45:02;;;;;;;;;;;;;;;-144.99;32.22;51969.13;5028818;28;19929;-77
2022/09/20 10:47:33;;;;;;;;;;;;;;;-144.99;31.14;51930.41;5056137;28;19931;-80
2022/09/20 10:50:04;;;;;;;;;;;;;;;-144.99;30.23;51926.34;5044097;28;19961;-77
2022/09/20 10:52:37;;;;;;;;;;;;;;;-144.99;29.75;51893.72;5057065;28;19925;-77
2022/09/20 10:55:08;;;;;;;;;;;;;;;-144.99;29.28;51905.97;5050855;28;19951;-78
2022/09/20 10:57:50;;;;;;;;;;;;;;;-144.99;28.98;51910.03;5038236;28;20279;-79
2022/09/20 11:00:21;;;;;;;;;;;;;;;-144.99;28.32;51891.69;5032966;28;20447;-77
2022/09/20 11:02:55;;;;;;;;;;;;;;;-144.99;28.27;51893.72;5041277;28;20372;-77
2022/09/20 11:05:29;;;;;;;;;;;;;;;-144.99;28.52;51901.88;5039138;28;19924;-77
2022/09/20 11:08:02;;;;;;;;;;;;;;;-144.99;28.37;51877.44;5043546;28;19931;-76
2022/09/20 11:10:29;;;;;;;;;;;;;;;-144.99;27.68;51897.81;5039356;28;19924;-77
2022/09/20 11:12:59;;;;;;;;;;;;;;;-144.99;27.69;51848.91;5034482;28;19927;-77
2022/09/20 11:15:28;;;;;;;;;;;;;;;-144.99;27.66;51832.59;5042181;28;20020;-77
2022/09/20 11:17:59;;;;;;;;;;;;;;;-144.99;27.59;51808.13;5039410;28;19921;-76
2022/09/20 11:20:29;;;;;;;;;;;;;;;-144.99;27.58;51799.97;5035587;28;19921;-76
2022/09/20 11:22:57;;;;;;;;;;;;;;;-144.99;27.05;51822.41;5036314;28;20640;-75
2022/09/20 11:25:28;;;;;;;;;;;;;;;-144.99;27.10;51885.56;5039542;28;20061;-76
2022/09/20 11:27:57;;;;;;;;;;;;;;;-144.99;27.39;51918.19;5042708;28;20462;-78
2022/09/20 11:30:23;;;;;;;;;;;;;;;-144.99;27.56;52020.09;5043606;28;19933;-77
2022/09/20 11:32:53;;;;;;;;;;;;;;;-144.99;28.96;51930.41;5033837;28;19940;-77
2022/09/20 11:35:25;;;;;;;;;;;;;;;-144.99;28.78;52105.69;5035605;28;19932;-77
2022/09/20 11:37:57;;;;;;;;;;;;;;;-144.99;28.94;52179.06;5040016;28;19939;-76
2022/09/20 11:40:26;;;;;;;;;;;;;;;-144.99;30.46;52187.19;5033290;28;19932;-78
2022/09/20 11:42:55;;;;;;;;;;;;;;;-144.99;30.62;52048.63;5039039;28;19979;-79
2022/09/20 11:45:22;;;;;;;;;;;;;;;-144.99;30.04;52016.00;5042407;28;20308;-77
2022/09/20 11:47:53;;;;;;;;;;;;;;;-144.99;29.21;51950.78;5032000;28;19936;-78
2022/09/20 11:50:38;;;;;;;;;;;;;;;-144.99;29.01;52128.09;5037369;28;19940;-78
2022/09/20 11:53:12;;;;;;;;;;;;;;;-144.99;29.39;52156.63;5039162;28;19945;-78
2022/09/20 11:55:43;;;;;;;;;;;;;;;-144.99;30.25;52207.59;5037836;28;19925;-76
2022/09/20 11:58:11;;;;;;;;;;;;;;;-144.99;31.46;52232.03;5038713;28;19932;-78
2022/09/20 12:00:40;;;;;;;;;;;;;;;-144.99;31.44;52040.47;5037390;28;19925;-77
2022/09/20 12:03:11;;;;;;;;;;;;;;;-144.99;30.99;51987.47;5039406;28;19925;-77
2022/09/20 12:05:38;;;;;;;;;;;;;;;-144.99;30.03;51954.88;5037626;28;19929;-79
2022/09/20 12:08:07;;;;;;;;;;;;;;;-144.99;29.24;51940.59;5039883;28;19931;-77
2022/09/20 12:10:37;;;;;;;;;;;;;;;-144.99;28.36;51918.19;5034952;28;20019;-78
2022/09/20 12:13:05;;;;;;;;;;;;;;;-144.99;28.05;51942.63;5037776;28;19925;-78
2022/09/20 12:15:32;;;;;;;;;;;;;;;-144.99;27.90;51918.19;5030602;28;19932;-75
2022/09/20 12:18:31;;;;;;;;;;;;;;;-144.99;28.08;51914.09;5034138;28;19928;-78
2022/09/20 12:21:14;;;;;;;;;;;;;;;-144.99;28.64;51952.81;4962164;28;20379;-79
2022/09/20 12:24:07;;;;;;;;;;;;;;;-144.99;28.40;51914.09;5029611;28;19929;-78
2022/09/20 12:26:49;;;;;;;;;;;;;;;-144.99;28.17;51893.72;5036898;28;20320;-77
2022/09/20 12:29:34;;;;;;;;;;;;;;;-144.99;27.37;51877.44;5038825;28;19983;-78
2022/09/20 12:32:02;;;;;;;;;;;;;;;-144.99;27.97;52056.78;5034782;28;19946;-79
2022/09/20 12:34:33;;;;;;;;;;;;;;;-144.99;28.60;52121.97;5037587;28;19935;-79
2022/09/20 12:37:21;;;;;;;;;;;;;;;-144.99;29.37;52077.16;5035818;28;19947;-79
2022/09/20 12:39:51;;;;;;;;;;;;;;;-144.99;29.31;51958.94;5029696;28;19939;-75
2022/09/20 12:42:27;;;;;;;;;;;;;;;-144.99;28.94;51942.63;5038526;28;19924;-78
2022/09/20 12:44:58;;;;;;;;;;;;;;;-144.99;28.10;51879.47;5043020;28;19928;-78
2022/09/20 12:47:26;;;;;;;;;;;;;;;-144.99;27.57;51848.91;5041726;28;19928;-75
2022/09/20 12:52:59;;;;;;;;;;;;;;;-144.99;27.69;51873.34;5036085;28;19955;-77
2022/09/20 12:55:41;;;;;;;;;;;;;;;-144.99;28.72;52058.81;5039863;28;19937;-74
2022/09/20 12:58:18;;;;;;;;;;;;;;;-144.99;28.63;52016.00;5037851;28;19935;-77
2022/09/20 13:00:45;;;;;;;;;;;;;;;-144.99;29.05;51971.16;5040768;28;19929;-73
2022/09/20 13:03:27;;;;;;;;;;;;;;;-144.99;28.64;51903.91;5035759;28;19932;-75